createdAt,value
2022-08-28T00:00:51.631Z,99595.84
2022-08-28T00:03:21.543Z,99600.25
2022-08-28T00:05:49.049Z,99593.88
2022-08-28T00:08:17.648Z,99593.59
2022-08-28T00:10:45.234Z,99581.53
2022-08-28T00:13:18.831Z,99576.16
2022-08-28T00:15:49.174Z,99569.75
2022-08-28T00:18:17.419Z,99561.81
2022-08-28T00:20:48.125Z,99555.59
2022-08-28T00:23:15.865Z,99552.59
2022-08-28T00:25:43.394Z,99563.22
2022-08-28T00:28:13.307Z,99571.53
2022-08-28T00:30:54.526Z,99581.69
2022-08-28T00:33:26.480Z,99585.38
2022-08-28T00:35:57.985Z,99585.62
2022-08-28T00:38:27.200Z,99590.72
2022-08-28T00:40:58.008Z,99593.47
2022-08-28T00:43:35.173Z,99598.91
2022-08-28T00:46:05.833Z,99593.25
2022-08-28T00:48:33.944Z,99584.69
2022-08-28T00:51:19.184Z,99594.03
2022-08-28T00:53:46.958Z,99588.41
2022-08-28T00:56:17.557Z,99588.41
2022-08-28T00:58:47.430Z,99597.75
2022-08-28T01:01:15.727Z,99600.03
2022-08-28T01:03:44.104Z,99604.31
2022-08-28T01:06:14.517Z,99583.66
2022-08-28T01:08:50.453Z,99582.81
2022-08-28T01:11:20.762Z,99568.88
2022-08-28T01:13:49.410Z,99565.31
2022-08-28T01:16:20.484Z,99556.88
2022-08-28T01:18:49.313Z,99560.19
2022-08-28T01:21:24.023Z,99558.34
2022-08-28T01:24:14.784Z,99558.09
2022-08-28T01:26:42.830Z,99572.84
2022-08-28T01:29:11.509Z,99575.03
2022-08-28T01:31:42.126Z,99583.19
2022-08-28T01:34:13.042Z,99584.34
2022-08-28T01:36:41.916Z,99587.13
2022-08-28T01:39:16.378Z,99591.56
2022-08-28T01:41:47.429Z,99584.75
2022-08-28T01:44:18.111Z,99601.56
2022-08-28T01:46:48.509Z,99593.84
2022-08-28T01:49:16.154Z,99590.47
2022-08-28T01:51:44.124Z,99592.50
2022-08-28T01:54:12.579Z,99600.97
2022-08-28T01:56:41.962Z,99577.84
2022-08-28T01:59:14.258Z,99588.72
2022-08-28T02:01:45.164Z,99569.16
2022-08-28T02:04:13.149Z,99581.81
2022-08-28T02:06:41.233Z,99576.97
2022-08-28T02:09:14.218Z,99581.44
2022-08-28T02:11:46.517Z,99580.00
2022-08-28T02:14:14.846Z,99568.66
2022-08-28T02:16:44.782Z,99557.16
2022-08-28T02:19:13.340Z,99560.59
2022-08-28T02:21:41.429Z,99559.31
2022-08-28T02:24:13.243Z,99554.47
2022-08-28T02:26:40.803Z,99554.00
2022-08-28T02:29:08.311Z,99556.41
2022-08-28T02:31:40.593Z,99555.94
2022-08-28T02:34:11.451Z,99563.41
2022-08-28T02:36:42.634Z,99564.56
2022-08-28T02:39:15.155Z,99570.72
2022-08-28T02:41:44.973Z,99560.50
2022-08-28T02:44:17.321Z,99562.44
2022-08-28T02:46:44.936Z,99575.94
2022-08-28T02:49:12.468Z,99568.78
2022-08-28T02:51:39.987Z,99569.91
2022-08-28T02:54:09.682Z,99571.06
2022-08-28T02:56:37.249Z,99568.16
2022-08-28T02:59:05.192Z,99565.41
2022-08-28T03:01:36.144Z,99580.00
2022-08-28T03:04:05.372Z,99603.06
2022-08-28T03:06:34.625Z,99610.69
2022-08-28T03:09:02.189Z,99611.84
2022-08-28T03:11:29.791Z,99602.56
2022-08-28T03:13:57.441Z,99599.59
2022-08-28T03:16:25.900Z,99600.41
2022-08-28T03:18:53.512Z,99609.16
2022-08-28T03:21:21.275Z,99605.13
2022-08-28T03:23:48.845Z,99605.91
2022-08-28T03:26:19.805Z,99601.88
2022-08-28T03:28:50.207Z,99601.06
2022-08-28T03:31:21.337Z,99600.59
2022-08-28T03:33:49.642Z,99601.75
2022-08-28T03:36:21.435Z,99588.09
2022-08-28T03:38:50.546Z,99600.50
2022-08-28T03:41:21.008Z,99606.97
2022-08-28T03:43:51.358Z,99600.38
2022-08-28T03:46:24.713Z,99605.41
2022-08-28T03:48:53.530Z,99611.59
2022-08-28T03:51:29.261Z,99612.41
2022-08-28T03:54:00.614Z,99610.94
2022-08-28T03:56:31.723Z,99604.41
2022-08-28T03:59:02.285Z,99606.34
2022-08-28T04:01:30.307Z,99615.56
2022-08-28T04:03:57.921Z,99607.16
2022-08-28T04:06:25.739Z,99605.69
2022-08-28T04:08:53.466Z,99611.87
2022-08-28T04:11:20.998Z,99609.00
2022-08-28T04:13:48.782Z,99608.84
2022-08-28T04:16:19.166Z,99611.09
2022-08-28T04:18:48.679Z,99617.75
2022-08-28T04:21:23.532Z,99613.84
2022-08-28T04:23:51.826Z,99611.44
2022-08-28T04:26:22.748Z,99626.38
2022-08-28T04:28:51.224Z,99629.47
2022-08-28T04:31:32.158Z,99623.94
2022-08-28T04:34:02.766Z,99619.56
2022-08-28T04:36:33.669Z,99623.94
2022-08-28T04:39:10.874Z,99615.19
2022-08-28T04:41:39.915Z,99627.84
2022-08-28T04:44:08.899Z,99623.12
2022-08-28T04:46:36.925Z,99630.59
2022-08-28T04:49:05.865Z,99631.03
2022-08-28T04:51:41.493Z,99640.75
2022-08-28T04:54:13.527Z,99641.06
2022-08-28T04:56:42.296Z,99638.59
2022-08-28T04:59:11.634Z,99647.62
2022-08-28T05:01:42.577Z,99647.59
2022-08-28T05:04:13.902Z,99643.97
2022-08-28T05:06:46.087Z,99651.50
2022-08-28T05:09:19.597Z,99660.69
2022-08-28T05:11:49.454Z,99668.44
2022-08-28T05:14:17.869Z,99655.88
2022-08-28T05:16:51.157Z,99664.31
2022-08-28T05:19:20.479Z,99664.91
2022-08-28T05:21:48.968Z,99670.72
2022-08-28T05:24:18.774Z,99668.41
2022-08-28T05:26:48.135Z,99674.06
2022-08-28T05:29:16.856Z,99670.56
2022-08-28T05:31:47.708Z,99660.69
2022-08-28T05:34:16.361Z,99664.84
2022-08-28T05:36:44.176Z,99661.78
2022-08-28T05:39:14.927Z,99667.72
2022-08-28T05:41:46.480Z,99660.84
2022-08-28T05:44:16.614Z,99662.00
2022-08-28T05:46:48.531Z,99669.84
2022-08-28T05:49:17.860Z,99665.03
2022-08-28T05:51:45.740Z,99669.19
2022-08-28T05:54:16.416Z,99665.00
2022-08-28T05:56:45.820Z,99658.22
2022-08-28T05:59:17.312Z,99669.16
2022-08-28T06:01:48.202Z,99665.22
2022-08-28T06:04:29.499Z,99665.75
2022-08-28T06:06:57.898Z,99665.13
2022-08-28T06:09:30.370Z,99671.25
2022-08-28T06:12:02.798Z,99675.03
2022-08-28T06:14:31.497Z,99672.84
2022-08-28T06:17:04.907Z,99674.50
2022-08-28T06:19:39.303Z,99664.59
2022-08-28T06:22:09.741Z,99673.75
2022-08-28T06:24:39.982Z,99661.16
2022-08-28T06:27:08.637Z,99661.88
2022-08-28T06:29:39.915Z,99671.88
2022-08-28T06:32:07.659Z,99671.44
2022-08-28T06:34:35.370Z,99673.91
2022-08-28T06:37:03.025Z,99669.91
2022-08-28T06:39:30.702Z,99680.44
2022-08-28T06:41:58.242Z,99672.25
2022-08-28T06:44:28.206Z,99680.50
2022-08-28T06:46:55.804Z,99687.87
2022-08-28T06:49:23.509Z,99683.84
2022-08-28T06:51:51.548Z,99688.81
2022-08-28T06:54:22.900Z,99683.81
2022-08-28T06:56:52.180Z,99683.88
2022-08-28T06:59:21.297Z,99683.13
2022-08-28T07:01:49.284Z,99684.91
2022-08-28T07:04:18.371Z,99696.31
2022-08-28T07:06:53.854Z,99693.31
2022-08-28T07:09:25.882Z,99696.06
2022-08-28T07:11:53.920Z,99697.09
2022-08-28T07:14:21.561Z,99709.06
2022-08-28T07:16:51.738Z,99702.06
2022-08-28T07:19:19.708Z,99705.47
2022-08-28T07:21:48.052Z,99705.97
2022-08-28T07:24:17.400Z,99707.03
2022-08-28T07:26:48.162Z,99708.00
2022-08-28T07:29:16.167Z,99711.72
2022-08-28T07:31:48.297Z,99717.22
2022-08-28T07:34:17.660Z,99721.34
2022-08-28T07:36:45.339Z,99727.09
2022-08-28T07:39:15.180Z,99726.47
2022-08-28T07:41:47.464Z,99723.06
2022-08-28T07:44:33.399Z,99721.56
2022-08-28T07:47:05.946Z,99717.25
2022-08-28T07:49:38.453Z,99731.63
2022-08-28T07:52:07.554Z,99721.47
2022-08-28T07:54:36.074Z,99726.72
2022-08-28T07:57:05.555Z,99724.91
2022-08-28T07:59:36.608Z,99726.75
2022-08-28T08:02:05.679Z,99723.41
2022-08-28T08:04:33.219Z,99720.25
2022-08-28T08:07:03.929Z,99719.31
2022-08-28T08:09:31.952Z,99715.50
2022-08-28T08:12:01.139Z,99730.91
2022-08-28T08:14:28.715Z,99733.94
2022-08-28T08:16:56.242Z,99732.03
2022-08-28T08:19:24.078Z,99740.47
2022-08-28T08:21:55.247Z,99737.28
2022-08-28T08:24:26.918Z,99738.06
2022-08-28T08:26:59.585Z,99741.13
2022-08-28T08:29:29.641Z,99736.16
2022-08-28T08:32:05.584Z,99741.84
2022-08-28T08:34:42.467Z,99741.56
2022-08-28T08:37:11.727Z,99745.69
2022-08-28T08:39:41.717Z,99751.44
2022-08-28T08:42:30.195Z,99755.34
2022-08-28T08:45:00.926Z,99748.41
2022-08-28T08:47:39.050Z,99741.13
2022-08-28T08:50:22.332Z,99743.53
2022-08-28T08:53:09.588Z,99747.47
2022-08-28T08:55:45.136Z,99753.53
2022-08-28T08:58:20.745Z,99746.66
2022-08-28T09:00:59.446Z,99748.84
2022-08-28T09:03:40.759Z,99740.03
2022-08-28T09:06:22.433Z,99741.47
2022-08-28T09:08:57.582Z,99746.16
2022-08-28T09:11:41.746Z,99751.50
2022-08-28T09:14:21.947Z,99742.47
2022-08-28T09:16:56.572Z,99741.97
2022-08-28T09:19:24.551Z,99744.56
2022-08-28T09:21:53.183Z,99749.28
2022-08-28T09:24:30.510Z,99752.53
2022-08-28T09:27:26.758Z,99758.22
2022-08-28T09:29:57.255Z,99747.69
2022-08-28T09:32:30.755Z,99752.06
2022-08-28T09:35:04.262Z,99761.44
2022-08-28T09:37:32.728Z,99758.56
2022-08-28T09:40:27.052Z,99765.56
2022-08-28T09:43:28.180Z,99758.69
2022-08-28T09:46:03.555Z,99752.59
2022-08-28T09:48:35.706Z,99757.16
2022-08-28T09:51:04.781Z,99756.84
2022-08-28T09:53:35.237Z,99763.63
2022-08-28T09:56:16.725Z,99757.84
2022-08-28T09:58:49.320Z,99746.09
2022-08-28T10:01:33.803Z,99750.37
2022-08-28T10:04:19.557Z,99752.81
2022-08-28T10:06:56.081Z,99754.75
2022-08-28T10:09:47.862Z,99744.94
2022-08-28T10:12:34.509Z,99748.84
2022-08-28T10:15:33.993Z,99743.69
2022-08-28T10:18:14.749Z,99753.75
2022-08-28T10:21:12.474Z,99750.37
2022-08-28T10:23:42.954Z,99745.09
2022-08-28T10:26:27.248Z,99735.88
2022-08-28T10:29:45.396Z,99746.50
2022-08-28T10:32:32.744Z,99731.63
2022-08-28T10:35:23.750Z,99732.84
2022-08-28T10:38:11.692Z,99736.34
2022-08-28T10:41:01.512Z,99729.50
2022-08-28T10:44:02.515Z,99733.75
2022-08-28T10:46:51.704Z,99728.94
2022-08-28T10:49:47.818Z,99722.62
2022-08-28T10:52:25.500Z,99734.44
2022-08-28T10:54:59.314Z,99728.84
2022-08-28T10:57:39.941Z,99737.19
2022-08-28T11:00:16.480Z,99725.03
2022-08-28T11:02:49.441Z,99725.13
2022-08-28T11:05:23.305Z,99727.41
2022-08-28T11:07:56.436Z,99726.66
2022-08-28T11:10:35.955Z,99722.53
2022-08-28T11:13:06.363Z,99731.06
2022-08-28T11:15:37.013Z,99721.34
2022-08-28T11:18:21.161Z,99733.06
2022-08-28T11:21:30.721Z,99722.06
2022-08-28T11:24:06.967Z,99739.81
2022-08-28T11:26:39.308Z,99729.38
2022-08-28T11:29:09.079Z,99728.06
2022-08-28T11:31:39.938Z,99726.75
2022-08-28T11:34:08.357Z,99727.34
2022-08-28T11:36:35.825Z,99719.72
2022-08-28T11:39:18.745Z,99714.69
2022-08-28T11:42:13.930Z,99714.50
2022-08-28T11:44:47.272Z,99711.50
2022-08-28T11:47:52.170Z,99720.16
2022-08-28T11:50:24.317Z,99709.63
2022-08-28T11:53:07.907Z,99705.34
2022-08-28T11:55:55.642Z,99708.59
2022-08-28T11:58:58.029Z,99705.84
2022-08-28T12:01:33.751Z,99695.31
2022-08-28T12:04:08.275Z,99695.91
2022-08-28T12:06:50.055Z,99698.31
2022-08-28T12:09:42.976Z,99700.69
2022-08-28T12:12:22.970Z,99699.47
2022-08-28T12:14:56.631Z,99691.34
2022-08-28T12:17:30.495Z,99689.84
2022-08-28T12:20:21.133Z,99697.63
2022-08-28T12:22:53.142Z,99684.41
2022-08-28T12:25:26.061Z,99692.78
2022-08-28T12:27:56.128Z,99688.00
2022-08-28T12:30:38.517Z,99687.38
2022-08-28T12:33:29.118Z,99686.47
2022-08-28T12:36:02.092Z,99691.47
2022-08-28T12:38:32.320Z,99684.06
2022-08-28T12:41:00.465Z,99679.06
2022-08-28T12:43:41.775Z,99677.53
2022-08-28T12:46:35.149Z,99665.75
2022-08-28T12:49:05.896Z,99670.31
2022-08-28T12:51:38.847Z,99672.28
2022-08-28T12:54:09.417Z,99667.88
2022-08-28T12:56:39.266Z,99664.41
2022-08-28T12:59:27.771Z,99661.91
2022-08-28T13:02:02.038Z,99667.81
2022-08-28T13:04:37.163Z,99661.56
2022-08-28T13:07:17.293Z,99660.78
2022-08-28T13:09:49.577Z,99660.06
2022-08-28T13:12:56.106Z,99654.00
2022-08-28T13:15:48.780Z,99654.78
2022-08-28T13:18:40.996Z,99651.91
2022-08-28T13:21:15.500Z,99656.28
2022-08-28T13:23:43.078Z,99642.81
2022-08-28T13:26:11.865Z,99653.00
2022-08-28T13:28:43.784Z,99655.38
2022-08-28T13:31:29.382Z,99654.16
2022-08-28T13:34:13.134Z,99660.75
2022-08-28T13:36:52.621Z,99659.69
2022-08-28T13:39:25.042Z,99656.97
2022-08-28T13:42:02.112Z,99642.97
2022-08-28T13:44:46.318Z,99642.09
2022-08-28T13:47:16.576Z,99640.91
2022-08-28T13:49:46.661Z,99647.75
2022-08-28T13:52:17.048Z,99628.16
2022-08-28T13:54:47.107Z,99634.22
2022-08-28T13:57:15.461Z,99622.59
2022-08-28T13:59:43.123Z,99629.41
2022-08-28T14:02:31.498Z,99621.00
2022-08-28T14:05:00.816Z,99623.81
2022-08-28T14:07:39.522Z,99621.03
2022-08-28T14:10:11.000Z,99630.69
2022-08-28T14:12:38.664Z,99623.88
2022-08-28T14:15:29.577Z,99624.22
2022-08-28T14:18:01.664Z,99613.00
2022-08-28T14:20:29.325Z,99620.63
2022-08-28T14:22:56.910Z,99614.59
2022-08-28T14:25:25.052Z,99610.22
2022-08-28T14:27:53.138Z,99613.00
2022-08-28T14:30:20.894Z,99610.59
2022-08-28T14:32:48.457Z,99613.78
2022-08-28T14:35:16.054Z,99614.94
2022-08-28T14:37:43.810Z,99617.72
2022-08-28T14:40:14.191Z,99618.94
2022-08-28T14:42:49.073Z,99621.78
2022-08-28T14:45:16.712Z,99624.56
2022-08-28T14:47:45.449Z,99620.56
2022-08-28T14:50:13.205Z,99617.75
2022-08-28T14:52:43.417Z,99620.16
2022-08-28T14:55:14.703Z,99624.09
2022-08-28T14:57:48.884Z,99625.69
2022-08-28T15:00:18.950Z,99621.66
2022-08-28T15:02:49.274Z,99618.84
2022-08-28T15:05:20.940Z,99631.97
2022-08-28T15:07:48.883Z,99613.53
2022-08-28T15:10:17.155Z,99629.53
2022-08-28T15:12:44.699Z,99618.25
2022-08-28T15:15:13.381Z,99620.59
2022-08-28T15:17:44.149Z,99614.16
2022-08-28T15:20:13.986Z,99622.47
2022-08-28T15:22:41.529Z,99620.06
2022-08-28T15:25:09.241Z,99626.84
2022-08-28T15:27:36.831Z,99627.22
2022-08-28T15:30:06.736Z,99627.53
2022-08-28T15:32:34.369Z,99630.63
2022-08-28T15:35:02.001Z,99633.81
2022-08-28T15:37:31.578Z,99639.34
2022-08-28T15:40:16.996Z,99633.31
2022-08-28T15:42:45.507Z,99632.03
2022-08-28T15:45:13.238Z,99626.34
2022-08-28T15:47:41.132Z,99629.91
2022-08-28T15:50:11.294Z,99630.19
2022-08-28T15:52:39.244Z,99633.63
2022-08-28T15:55:07.314Z,99641.22
2022-08-28T15:57:35.034Z,99631.16
2022-08-28T16:00:10.216Z,99638.56
2022-08-28T16:02:39.131Z,99641.63
2022-08-28T16:05:07.160Z,99633.50
2022-08-28T16:07:37.901Z,99622.13
2022-08-28T16:10:07.713Z,99623.53
2022-08-28T16:12:37.877Z,99622.59
2022-08-28T16:15:05.913Z,99634.41
2022-08-28T16:17:33.467Z,99636.66
2022-08-28T16:20:05.092Z,99635.81
2022-08-28T16:22:34.589Z,99636.41
2022-08-28T16:25:02.153Z,99628.69
2022-08-28T16:27:32.383Z,99622.66
2022-08-28T16:30:00.982Z,99621.72
2022-08-28T16:32:30.794Z,99620.00
2022-08-28T16:34:59.033Z,99625.09
2022-08-28T16:37:37.711Z,99628.56
2022-08-28T16:40:09.976Z,99637.16
2022-08-28T16:42:37.718Z,99638.56
2022-08-28T16:45:06.439Z,99644.88
2022-08-28T16:47:36.360Z,99649.16
2022-08-28T16:50:08.716Z,99649.34
2022-08-28T16:52:36.954Z,99653.25
2022-08-28T16:55:09.455Z,99651.94
2022-08-28T16:57:40.082Z,99664.56
2022-08-28T17:00:11.891Z,99669.72
2022-08-28T17:02:41.447Z,99674.38
2022-08-28T17:05:09.511Z,99670.28
2022-08-28T17:07:37.102Z,99675.34
2022-08-28T17:10:06.377Z,99675.63
2022-08-28T17:12:34.061Z,99674.19
2022-08-28T17:15:02.710Z,99682.41
2022-08-28T17:17:33.823Z,99685.47
2022-08-28T17:20:02.511Z,99683.72
2022-08-28T17:22:32.334Z,99691.44
2022-08-28T17:25:04.835Z,99693.78
2022-08-28T17:27:33.124Z,99685.72
2022-08-28T17:30:04.816Z,99687.63
2022-08-28T17:32:33.267Z,99697.94
2022-08-28T17:35:05.692Z,99700.66
2022-08-28T17:37:33.370Z,99698.59
2022-08-28T17:40:01.015Z,99700.44
2022-08-28T17:42:28.596Z,99700.25
2022-08-28T17:44:56.163Z,99708.88
2022-08-28T17:47:27.522Z,99716.34
2022-08-28T17:50:01.307Z,99721.91
2022-08-28T17:52:30.150Z,99716.25
2022-08-28T17:54:57.827Z,99730.88
2022-08-28T17:57:30.264Z,99728.19
2022-08-28T18:00:02.374Z,99735.34
2022-08-28T18:02:35.490Z,99727.37
2022-08-28T18:05:07.112Z,99734.47
2022-08-28T18:07:37.393Z,99742.78
2022-08-28T18:10:07.028Z,99736.31
2022-08-28T18:12:37.701Z,99737.56
2022-08-28T18:15:06.303Z,99730.88
2022-08-28T18:17:33.901Z,99735.72
2022-08-28T18:20:08.198Z,99727.00
2022-08-28T18:22:35.841Z,99722.34
2022-08-28T18:25:04.411Z,99723.59
2022-08-28T18:27:34.317Z,99734.63
2022-08-28T18:30:02.590Z,99731.84
2022-08-28T18:32:34.225Z,99742.97
2022-08-28T18:35:01.847Z,99747.00
2022-08-28T18:37:29.410Z,99749.34
2022-08-28T18:39:56.953Z,99756.41
2022-08-28T18:42:25.768Z,99755.63
2022-08-28T18:44:55.468Z,99758.66
2022-08-28T18:47:25.846Z,99752.28
2022-08-28T18:49:54.230Z,99754.59
2022-08-28T18:52:24.200Z,99762.13
2022-08-28T18:54:52.045Z,99759.72
2022-08-28T18:57:26.583Z,99760.97
2022-08-28T18:59:54.212Z,99765.28
2022-08-28T19:02:24.881Z,99761.69
2022-08-28T19:04:54.759Z,99759.19
2022-08-28T19:07:22.813Z,99754.78
2022-08-28T19:09:53.039Z,99766.25
2022-08-28T19:12:20.552Z,99767.69
2022-08-28T19:14:48.151Z,99774.69
2022-08-28T19:17:21.104Z,99776.53
2022-08-28T19:19:51.671Z,99774.47
2022-08-28T19:22:19.703Z,99772.78
2022-08-28T19:24:47.750Z,99779.31
2022-08-28T19:27:16.496Z,99781.03
2022-08-28T19:29:46.619Z,99781.38
2022-08-28T19:32:16.770Z,99789.25
2022-08-28T19:34:44.321Z,99794.06
2022-08-28T19:37:11.917Z,99803.00
2022-08-28T19:39:41.819Z,99805.19
2022-08-28T19:42:20.277Z,99804.03
2022-08-28T19:44:51.074Z,99809.87
2022-08-28T19:47:22.332Z,99807.56
2022-08-28T19:49:56.471Z,99802.72
2022-08-28T19:52:25.236Z,99807.94
2022-08-28T19:54:52.859Z,99819.88
2022-08-28T19:57:23.145Z,99829.56
2022-08-28T19:59:50.735Z,99830.25
2022-08-28T20:02:18.310Z,99835.66
2022-08-28T20:04:45.950Z,99837.41
2022-08-28T20:07:18.462Z,99841.34
2022-08-28T20:09:47.154Z,99837.97
2022-08-28T20:12:17.592Z,99835.19
2022-08-28T20:14:47.358Z,99840.84
2022-08-28T20:17:14.947Z,99832.97
2022-08-28T20:19:45.457Z,99836.97
2022-08-28T20:22:13.507Z,99832.19
2022-08-28T20:24:41.091Z,99832.75
2022-08-28T20:27:08.738Z,99837.28
2022-08-28T20:29:36.362Z,99833.47
2022-08-28T20:32:04.475Z,99840.37
2022-08-28T20:34:32.055Z,99838.94
2022-08-28T20:36:59.590Z,99830.41
2022-08-28T20:39:28.221Z,99834.88
2022-08-28T20:41:55.906Z,99833.63
2022-08-28T20:44:24.678Z,99842.63
2022-08-28T20:46:53.749Z,99847.87
2022-08-28T20:49:23.731Z,99850.84
2022-08-28T20:51:56.947Z,99841.28
2022-08-28T20:54:28.752Z,99847.97
2022-08-28T20:56:58.287Z,99850.19
2022-08-28T20:59:35.377Z,99846.28
2022-08-28T21:02:12.149Z,99843.66
2022-08-28T21:04:41.393Z,99847.78
2022-08-28T21:07:12.540Z,99849.75
2022-08-28T21:10:04.441Z,99850.22
2022-08-28T21:12:28.337Z,99853.38
2022-08-28T21:14:55.861Z,99853.38
2022-08-28T21:17:29.891Z,99859.78
2022-08-28T21:20:13.334Z,99857.03
2022-08-28T21:22:41.921Z,99858.38
2022-08-28T21:25:11.225Z,99860.31
2022-08-28T21:27:39.406Z,99849.28
2022-08-28T21:30:08.608Z,99856.28
2022-08-28T21:32:37.166Z,99858.41
2022-08-28T21:35:06.388Z,99860.03
2022-08-28T21:37:34.227Z,99858.25
2022-08-28T21:40:02.286Z,99861.81
2022-08-28T21:42:29.964Z,99861.81
2022-08-28T21:44:57.498Z,99860.53
2022-08-28T21:47:28.030Z,99862.94
2022-08-28T21:49:59.221Z,99858.41
2022-08-28T21:52:31.244Z,99855.81
2022-08-28T21:55:00.778Z,99855.50
2022-08-28T21:57:29.725Z,99854.19
2022-08-28T21:59:59.890Z,99860.84
2022-08-28T22:02:27.909Z,99860.84
2022-08-28T22:04:55.522Z,99864.09
2022-08-28T22:07:23.208Z,99857.41
2022-08-28T22:09:51.531Z,99853.22
2022-08-28T22:12:19.434Z,99863.44
2022-08-28T22:14:47.078Z,99863.75
2022-08-28T22:17:16.300Z,99865.19
2022-08-28T22:19:45.644Z,99862.91
2022-08-28T22:22:35.088Z,99859.34
2022-08-28T22:25:03.040Z,99862.09
2022-08-28T22:27:32.862Z,99864.37
2022-08-28T22:30:00.794Z,99864.22
2022-08-28T22:32:28.356Z,99860.00
2022-08-28T22:34:56.178Z,99863.41
2022-08-28T22:37:24.083Z,99866.19
2022-08-28T22:39:51.676Z,99858.22
2022-08-28T22:42:19.569Z,99865.38
2022-08-28T22:44:47.251Z,99863.25
2022-08-28T22:47:18.862Z,99862.75
2022-08-28T22:49:46.801Z,99856.59
2022-08-28T22:52:16.360Z,99856.63
2022-08-28T22:54:44.295Z,99859.25
2022-08-28T22:57:11.842Z,99857.94
2022-08-28T22:59:39.420Z,99864.09
2022-08-28T23:02:09.307Z,99860.03
2022-08-28T23:04:37.186Z,99867.19
2022-08-28T23:07:06.146Z,99868.81
2022-08-28T23:09:36.003Z,99867.50
2022-08-28T23:12:05.972Z,99862.47
2022-08-28T23:14:33.489Z,99860.38
2022-08-28T23:17:01.102Z,99862.97
2022-08-28T23:19:29.063Z,99859.06
2022-08-28T23:21:57.889Z,99873.19
2022-08-28T23:24:27.798Z,99872.69
2022-08-28T23:27:09.353Z,99872.37
2022-08-28T23:29:46.122Z,99877.25
2022-08-28T23:32:19.355Z,99876.91
2022-08-28T23:34:46.918Z,99876.75
2022-08-28T23:37:16.966Z,99880.50
2022-08-28T23:39:46.986Z,99882.59
2022-08-28T23:42:15.545Z,99877.91
2022-08-28T23:44:43.102Z,99885.34
2022-08-28T23:47:13.290Z,99883.72
2022-08-28T23:49:41.566Z,99877.72
2022-08-28T23:52:11.713Z,99886.31
2022-08-28T23:54:39.773Z,99882.22
2022-08-28T23:57:08.660Z,99875.56
2022-08-28T23:59:38.524Z,99879.78
